Alder, Montana
Current Conditions -  °F | °C
As of 4:53 PM on Saturday 25 Oct 2014 (Local Time) from KDLN Reporting Station
Clear Clear  
Wind Chill: 67°   Ceiling: Unl
Heat Index: 67°   Visibility: 10mi
Dew Point: 28°   Wind: 22mph
Humidity: 23%   Direction: 180°S
Pressure: 29.8"   Gusts: 31mph
Location:  45.32°N, 112.11°W
Report Text: KDLN 252253Z AUTO 18019G27KT 10SM CLR 19/M02 A2980 RMK AO2 PK WND 18030/2201 SLP062 T01941022
Loading
Personal Weather Stations






























Interactive Weather Map New forecast layout! Learn more

10-Day Weather Forecast

Advertisements
Track Severe Weather on mobile